createdAt,value
2016-04-21T00:00:14.177Z,11.29
2016-04-21T00:01:14.195Z,11.22
2016-04-21T00:02:14.230Z,11.22
2016-04-21T00:03:14.233Z,11.22
2016-04-21T00:04:14.281Z,11.18
2016-04-21T00:05:14.300Z,11.17
2016-04-21T00:06:14.302Z,11.17
2016-04-21T00:07:14.321Z,11.15
2016-04-21T00:08:14.339Z,11.19
2016-04-21T00:09:14.358Z,11.11
2016-04-21T00:10:14.377Z,11.14
2016-04-21T00:11:14.394Z,11.05
2016-04-21T00:12:14.413Z,11.05
2016-04-21T00:13:14.431Z,11.02
2016-04-21T00:14:14.449Z,11
2016-04-21T00:15:14.483Z,11.02
2016-04-21T00:16:14.501Z,11.05
2016-04-21T00:17:14.504Z,11
2016-04-21T00:18:14.538Z,11.04
2016-04-21T00:19:14.557Z,10.99
2016-04-21T00:20:14.575Z,10.97
2016-04-21T00:21:14.593Z,10.93
2016-04-21T00:22:14.612Z,10.93
2016-04-21T00:23:14.364Z,10.87
2016-04-21T00:24:14.648Z,10.89
2016-04-21T00:25:14.666Z,10.94
2016-04-21T00:26:14.684Z,10.92
2016-04-21T00:27:14.703Z,10.87
2016-04-21T00:28:14.768Z,10.94
2016-04-21T00:29:14.756Z,10.89
2016-04-21T00:30:14.773Z,10.86
2016-04-21T00:31:14.792Z,10.75
2016-04-21T00:32:14.810Z,10.78
2016-04-21T00:33:14.828Z,10.78
2016-04-21T00:34:14.847Z,10.79
2016-04-21T00:35:14.864Z,10.79
2016-04-21T00:36:14.884Z,10.79
2016-04-21T00:37:14.917Z,10.78
2016-04-21T00:38:14.935Z,10.79
2016-04-21T00:39:14.939Z,10.69
2016-04-21T00:40:14.957Z,10.75
2016-04-21T00:41:14.990Z,10.81
2016-04-21T00:42:14.993Z,10.75
2016-04-21T00:43:15.027Z,10.74
2016-04-21T00:44:15.046Z,10.75
2016-04-21T00:45:15.080Z,10.79
2016-04-21T00:46:15.098Z,10.67
2016-04-21T00:47:15.101Z,10.71
2016-04-21T00:48:15.118Z,10.67
2016-04-21T00:49:15.137Z,10.67
2016-04-21T00:50:15.171Z,10.63
2016-04-21T00:51:15.189Z,10.63
2016-04-21T00:52:15.193Z,10.61
2016-04-21T00:53:15.210Z,10.68
2016-04-21T00:54:15.245Z,10.59
2016-04-21T00:55:15.248Z,10.67
2016-04-21T00:56:15.281Z,10.53
2016-04-21T00:57:15.299Z,10.59
2016-04-21T00:58:15.317Z,10.57
2016-04-21T00:59:15.320Z,10.51
2016-04-21T01:00:15.354Z,10.59
2016-04-21T01:01:15.373Z,10.59
2016-04-21T01:02:15.391Z,10.54
2016-04-21T01:03:15.425Z,10.51
2016-04-21T01:04:15.443Z,10.49
2016-04-21T01:05:15.506Z,10.48
2016-04-21T01:06:15.571Z,10.4
2016-04-21T01:07:15.634Z,10.46
2016-04-21T01:08:15.697Z,10.41
2016-04-21T01:09:15.767Z,10.4
2016-04-21T01:10:15.802Z,10.41
2016-04-21T01:11:15.821Z,10.4
2016-04-21T01:12:15.871Z,10.37
2016-04-21T01:13:15.922Z,10.41
2016-04-21T01:14:15.937Z,10.4
2016-04-21T01:15:15.961Z,10.4
2016-04-21T01:16:15.985Z,10.34
2016-04-21T01:17:15.994Z,10.28
2016-04-21T01:18:16.033Z,10.3
2016-04-21T01:19:16.057Z,10.31
2016-04-21T01:20:16.077Z,10.3
2016-04-21T01:21:16.113Z,10.25
2016-04-21T01:22:16.248Z,10.31
2016-04-21T01:23:16.142Z,10.25
2016-04-21T01:24:16.178Z,10.25
2016-04-21T01:25:16.182Z,10.25
2016-04-21T01:26:16.201Z,10.23
2016-04-21T01:27:16.205Z,10.28
2016-04-21T01:28:16.224Z,10.2
2016-04-21T01:29:16.274Z,10.25
2016-04-21T01:30:16.277Z,10.3
2016-04-21T01:31:16.311Z,10.3
2016-04-21T01:32:16.314Z,10.22
2016-04-21T01:33:15.582Z,10.12
2016-04-21T01:34:16.351Z,10.19
2016-04-21T01:35:16.370Z,10.19
2016-04-21T01:36:16.404Z,10.15
2016-04-21T01:37:16.406Z,10.17
2016-04-21T01:38:16.472Z,10.15
2016-04-21T01:39:16.443Z,10.15
2016-04-21T01:40:16.462Z,10.15
2016-04-21T01:41:16.479Z,10.12
2016-04-21T01:42:16.514Z,10.1
2016-04-21T01:43:16.531Z,10.16
2016-04-21T01:44:16.534Z,10.13
2016-04-21T01:45:16.553Z,10.07
2016-04-21T01:46:16.587Z,10.05
2016-04-21T01:47:16.590Z,10.04
2016-04-21T01:48:16.623Z,9.99
2016-04-21T01:49:16.626Z,9.97
2016-04-21T01:50:16.660Z,9.95
2016-04-21T01:51:16.663Z,9.97
2016-04-21T01:52:16.697Z,9.92
2016-04-21T01:53:16.731Z,9.91
2016-04-21T01:54:16.734Z,9.92
2016-04-21T01:55:16.752Z,9.89
2016-04-21T01:56:16.755Z,9.98
2016-04-21T01:57:16.772Z,9.91
2016-04-21T01:58:16.807Z,9.92
2016-04-21T01:59:16.824Z,9.91
2016-04-21T02:00:16.843Z,9.94
2016-04-21T02:01:16.846Z,9.89
2016-04-21T02:02:16.880Z,9.87
2016-04-21T02:03:16.899Z,9.92
2016-04-21T02:04:16.932Z,9.84
2016-04-21T02:05:16.935Z,9.82
2016-04-21T02:06:16.953Z,9.77
2016-04-21T02:07:16.972Z,9.87
2016-04-21T02:08:17.006Z,9.8
2016-04-21T02:09:17.009Z,9.76
2016-04-21T02:10:17.026Z,9.79
2016-04-21T02:11:17.045Z,9.82
2016-04-21T02:12:17.062Z,9.82
2016-04-21T02:13:17.082Z,9.84
2016-04-21T02:14:17.101Z,9.79
2016-04-21T02:15:17.103Z,9.79
2016-04-21T02:16:17.136Z,9.79
2016-04-21T02:17:17.155Z,9.69
2016-04-21T02:18:17.172Z,9.76
2016-04-21T02:19:17.191Z,9.73
2016-04-21T02:20:17.210Z,9.8
2016-04-21T02:21:17.228Z,9.74
2016-04-21T02:22:17.246Z,9.69
2016-04-21T02:23:17.139Z,9.68
2016-04-21T02:24:17.284Z,9.79
2016-04-21T02:25:17.302Z,9.69
2016-04-21T02:26:17.320Z,9.79
2016-04-21T02:27:17.338Z,9.77
2016-04-21T02:28:17.372Z,9.69
2016-04-21T02:29:17.375Z,9.66
2016-04-21T02:30:17.393Z,9.68
2016-04-21T02:31:17.411Z,9.66
2016-04-21T02:32:17.429Z,9.65
2016-04-21T02:33:17.463Z,9.65
2016-04-21T02:34:17.466Z,9.66
2016-04-21T02:35:17.499Z,9.66
2016-04-21T02:36:17.503Z,9.65
2016-04-21T02:37:17.521Z,9.65
2016-04-21T02:38:17.587Z,9.65
2016-04-21T02:39:17.574Z,9.61
2016-04-21T02:40:17.592Z,9.55
2016-04-21T02:41:17.595Z,9.59
2016-04-21T02:42:17.612Z,9.56
2016-04-21T02:43:17.631Z,9.56
2016-04-21T02:44:17.649Z,9.55
2016-04-21T02:45:17.667Z,9.59
2016-04-21T02:46:17.687Z,9.56
2016-04-21T02:47:17.548Z,9.59
2016-04-21T02:48:17.723Z,9.54
2016-04-21T02:49:17.741Z,9.55
2016-04-21T02:50:17.759Z,9.56
2016-04-21T02:51:17.793Z,9.58
2016-04-21T02:52:17.795Z,9.48
2016-04-21T02:53:17.705Z,9.47
2016-04-21T02:54:17.817Z,9.54
2016-04-21T02:55:17.850Z,9.43
2016-04-21T02:56:17.869Z,9.43
2016-04-21T02:57:17.887Z,9.44
2016-04-21T02:58:17.906Z,9.47
2016-04-21T02:59:17.924Z,9.47
2016-04-21T03:00:17.942Z,9.48
2016-04-21T03:01:17.961Z,9.41
2016-04-21T03:02:17.979Z,9.48
2016-04-21T03:03:17.997Z,9.47
2016-04-21T03:04:18.000Z,9.47
2016-04-21T03:05:18.034Z,9.41
2016-04-21T03:06:18.052Z,9.41
2016-04-21T03:07:18.054Z,9.41
2016-04-21T03:08:18.104Z,9.39
2016-04-21T03:09:18.108Z,9.32
2016-04-21T03:10:18.110Z,9.32
2016-04-21T03:11:18.144Z,9.37
2016-04-21T03:12:18.162Z,9.41
2016-04-21T03:13:18.196Z,9.37
2016-04-21T03:14:18.199Z,9.34
2016-04-21T03:15:18.217Z,9.25
2016-04-21T03:16:18.220Z,9.28
2016-04-21T03:17:18.253Z,9.31
2016-04-21T03:18:18.287Z,9.31
2016-04-21T03:19:18.290Z,9.29
2016-04-21T03:20:18.308Z,9.23
2016-04-21T03:21:18.328Z,9.29
2016-04-21T03:22:18.338Z,9.29
2016-04-21T03:23:18.248Z,9.25
2016-04-21T03:24:18.375Z,9.25
2016-04-21T03:25:18.409Z,9.28
2016-04-21T03:26:18.412Z,9.22
2016-04-21T03:27:18.429Z,9.19
2016-04-21T03:28:18.449Z,9.14
2016-04-21T03:29:18.467Z,9.14
2016-04-21T03:30:18.484Z,9.18
2016-04-21T03:31:18.503Z,9.13
2016-04-21T03:32:18.522Z,9.14
2016-04-21T03:33:18.540Z,9.11
2016-04-21T03:34:18.542Z,9.19
2016-04-21T03:35:18.576Z,9.18
2016-04-21T03:36:18.595Z,9.13
2016-04-21T03:37:18.614Z,9.13
2016-04-21T03:38:18.631Z,9.13
2016-04-21T03:39:18.634Z,9.18
2016-04-21T03:40:18.652Z,9.1
2016-04-21T03:41:18.686Z,9.06
2016-04-21T03:42:18.705Z,9.1
2016-04-21T03:43:18.708Z,9.03
2016-04-21T03:44:18.725Z,9.08
2016-04-21T03:45:18.744Z,8.97
2016-04-21T03:46:18.762Z,9
2016-04-21T03:47:18.797Z,9.02
2016-04-21T03:48:18.815Z,9.1
2016-04-21T03:49:18.818Z,8.97
2016-04-21T03:50:18.835Z,9.06
2016-04-21T03:51:18.854Z,8.97
2016-04-21T03:52:18.871Z,9.04
2016-04-21T03:53:18.922Z,9.04
2016-04-21T03:54:18.909Z,9.03
2016-04-21T03:55:18.927Z,9.02
2016-04-21T03:56:18.962Z,8.99
2016-04-21T03:57:18.964Z,8.99
2016-04-21T03:58:18.982Z,8.97
2016-04-21T03:59:19.000Z,8.97
2016-04-21T04:00:19.018Z,8.94
2016-04-21T04:01:19.037Z,8.99
2016-04-21T04:02:19.056Z,8.91
2016-04-21T04:03:19.073Z,8.95
2016-04-21T04:04:19.108Z,8.88
2016-04-21T04:05:19.095Z,8.89
2016-04-21T04:06:19.128Z,8.95
2016-04-21T04:07:19.147Z,8.88
2016-04-21T04:08:19.164Z,8.81
2016-04-21T04:09:19.168Z,8.82
2016-04-21T04:10:19.202Z,8.91
2016-04-21T04:11:19.205Z,8.84
2016-04-21T04:12:19.238Z,8.76
2016-04-21T04:13:19.272Z,8.92
2016-04-21T04:14:19.259Z,8.74
2016-04-21T04:15:19.308Z,8.84
2016-04-21T04:16:19.296Z,8.79
2016-04-21T04:17:19.314Z,8.81
2016-04-21T04:18:19.349Z,8.84
2016-04-21T04:19:19.366Z,8.81
2016-04-21T04:20:19.369Z,8.79
2016-04-21T04:21:19.388Z,8.76
2016-04-21T04:22:19.407Z,8.85
2016-04-21T04:23:19.424Z,8.84
2016-04-21T04:24:19.427Z,8.78
2016-04-21T04:25:19.460Z,8.76
2016-04-21T04:26:19.479Z,8.74
2016-04-21T04:27:19.498Z,8.73
2016-04-21T04:28:19.515Z,8.76
2016-04-21T04:29:19.519Z,8.76
2016-04-21T04:30:19.537Z,8.82
2016-04-21T04:31:19.556Z,8.84
2016-04-21T04:32:19.573Z,8.74
2016-04-21T04:33:19.592Z,8.66
2016-04-21T04:34:19.609Z,8.74
2016-04-21T04:35:19.629Z,8.74
2016-04-21T04:36:19.647Z,8.76
2016-04-21T04:37:19.665Z,8.79
2016-04-21T04:38:19.684Z,8.78
2016-04-21T04:39:19.702Z,8.7
2016-04-21T04:40:19.705Z,8.71
2016-04-21T04:41:19.738Z,8.71
2016-04-21T04:42:19.756Z,8.67
2016-04-21T04:43:19.775Z,8.78
2016-04-21T04:44:19.778Z,8.76
2016-04-21T04:45:19.796Z,8.79
2016-04-21T04:46:19.830Z,8.69
2016-04-21T04:47:19.848Z,8.69
2016-04-21T04:48:19.852Z,8.76
2016-04-21T04:49:19.885Z,8.73
2016-04-21T04:50:19.888Z,8.78
2016-04-21T04:51:19.921Z,8.69
2016-04-21T04:52:19.924Z,8.66
2016-04-21T04:53:19.958Z,8.67
2016-04-21T04:54:19.961Z,8.7
2016-04-21T04:55:19.996Z,8.73
2016-04-21T04:56:19.998Z,8.64
2016-04-21T04:57:20.016Z,8.71
2016-04-21T04:58:20.049Z,8.74
2016-04-21T04:59:20.052Z,8.67
2016-04-21T05:00:20.070Z,8.64
2016-04-21T05:01:20.090Z,8.7
2016-04-21T05:02:20.092Z,8.67
2016-04-21T05:03:20.110Z,8.71
2016-04-21T05:04:20.128Z,8.69
2016-04-21T05:05:20.147Z,8.64
2016-04-21T05:06:20.195Z,8.67
2016-04-21T05:07:20.183Z,8.66
2016-04-21T05:08:20.202Z,8.71
2016-04-21T05:09:20.220Z,8.71
2016-04-21T05:10:20.239Z,8.76
2016-04-21T05:11:20.272Z,8.66
2016-04-21T05:12:20.259Z,8.69
2016-04-21T05:13:20.293Z,8.64
2016-04-21T05:14:20.296Z,8.71
2016-04-21T05:15:20.330Z,8.7
2016-04-21T05:16:20.348Z,8.69
2016-04-21T05:17:20.350Z,8.7
2016-04-21T05:18:20.369Z,8.73
2016-04-21T05:19:20.388Z,8.76
2016-04-21T05:20:20.406Z,8.66
2016-04-21T05:21:20.424Z,8.69
2016-04-21T05:22:20.443Z,8.73
2016-04-21T05:23:20.460Z,8.73
2016-04-21T05:24:20.479Z,8.69
2016-04-21T05:25:20.497Z,8.7
2016-04-21T05:26:20.531Z,8.79
2016-04-21T05:27:20.534Z,8.79
2016-04-21T05:28:20.552Z,8.78
2016-04-21T05:29:20.571Z,8.73
2016-04-21T05:30:20.590Z,8.74
2016-04-21T05:31:20.607Z,8.74
2016-04-21T05:32:20.610Z,8.79
2016-04-21T05:33:20.493Z,8.76
2016-04-21T05:34:20.513Z,8.79
2016-04-21T05:35:20.529Z,8.67
2016-04-21T05:36:20.698Z,8.74
2016-04-21T05:37:20.712Z,8.82
2016-04-21T05:38:20.715Z,8.74
2016-04-21T05:39:20.734Z,8.78
2016-04-21T05:40:20.752Z,8.82
2016-04-21T05:41:20.770Z,8.74
2016-04-21T05:42:20.788Z,8.78
2016-04-21T05:43:20.807Z,8.82
2016-04-21T05:44:20.825Z,8.76
2016-04-21T05:45:20.842Z,8.79
2016-04-21T05:46:20.862Z,8.76
2016-04-21T05:47:20.880Z,8.87
2016-04-21T05:48:20.883Z,8.79
2016-04-21T05:49:20.901Z,8.85
2016-04-21T05:50:20.935Z,8.76
2016-04-21T05:51:20.953Z,8.91
2016-04-21T05:52:20.955Z,8.91
2016-04-21T05:53:20.990Z,8.92
2016-04-21T05:54:20.992Z,8.87
2016-04-21T05:55:21.010Z,8.92
2016-04-21T05:56:21.030Z,8.88
2016-04-21T05:57:21.063Z,8.94
2016-04-21T05:58:20.924Z,8.94
2016-04-21T05:59:21.085Z,8.94
2016-04-21T06:00:21.102Z,8.95
2016-04-21T06:01:21.136Z,8.91
2016-04-21T06:02:21.139Z,9.02
2016-04-21T06:03:21.157Z,9.04
2016-04-21T06:04:21.160Z,8.94
2016-04-21T06:05:21.194Z,9.03
2016-04-21T06:06:21.212Z,9.06
2016-04-21T06:07:21.215Z,9.08
2016-04-21T06:08:21.248Z,9.03
2016-04-21T06:09:21.282Z,9.1
2016-04-21T06:10:21.270Z,9.13
2016-04-21T06:11:21.304Z,9.11
2016-04-21T06:12:21.306Z,9.19
2016-04-21T06:13:21.340Z,9.14
2016-04-21T06:14:21.359Z,9.13
2016-04-21T06:15:21.362Z,9.29
2016-04-21T06:16:21.380Z,9.29
2016-04-21T06:17:21.398Z,9.28
2016-04-21T06:18:21.417Z,9.37
2016-04-21T06:19:21.434Z,9.36
2016-04-21T06:20:21.453Z,9.37
2016-04-21T06:21:21.471Z,9.37
2016-04-21T06:22:21.333Z,9.44
2016-04-21T06:23:21.508Z,9.4
2016-04-21T06:24:21.541Z,9.47
2016-04-21T06:25:21.654Z,9.56
2016-04-21T06:26:21.563Z,9.64
2016-04-21T06:27:21.566Z,9.54
2016-04-21T06:28:21.599Z,9.69
2016-04-21T06:29:21.618Z,9.68
2016-04-21T06:30:21.636Z,9.69
2016-04-21T06:31:21.655Z,9.76
2016-04-21T06:32:21.674Z,9.68
2016-04-21T06:33:21.676Z,9.76
2016-04-21T06:34:21.694Z,9.79
2016-04-21T06:35:21.727Z,9.84
2016-04-21T06:36:21.746Z,9.8
2016-04-21T06:37:21.749Z,9.86
2016-04-21T06:38:21.783Z,9.92
2016-04-21T06:39:21.785Z,9.91
2016-04-21T06:40:21.804Z,9.94
2016-04-21T06:41:21.823Z,10.04
2016-04-21T06:42:21.840Z,10.09
2016-04-21T06:43:21.842Z,10.1
2016-04-21T06:44:21.877Z,10.12
2016-04-21T06:45:21.879Z,10.15
2016-04-21T06:46:21.914Z,10.19
2016-04-21T06:47:21.932Z,10.25
2016-04-21T06:48:21.967Z,10.3
2016-04-21T06:49:21.953Z,10.34
2016-04-21T06:50:21.987Z,10.31
2016-04-21T06:51:22.021Z,10.37
2016-04-21T06:52:22.008Z,10.48
2016-04-21T06:53:22.042Z,10.51
2016-04-21T06:54:22.045Z,10.57
2016-04-21T06:55:22.078Z,10.53
2016-04-21T06:56:22.097Z,10.57
2016-04-21T06:57:22.131Z,10.61
2016-04-21T06:58:22.133Z,10.67
2016-04-21T06:59:22.136Z,10.74
2016-04-21T07:00:22.155Z,10.82
2016-04-21T07:01:22.172Z,10.79
2016-04-21T07:02:22.191Z,10.81
2016-04-21T07:03:22.210Z,10.9
2016-04-21T07:04:22.227Z,10.99
2016-04-21T07:05:22.262Z,11
2016-04-21T07:06:22.280Z,11.07
2016-04-21T07:07:22.298Z,11.15
2016-04-21T07:08:22.301Z,11.25
2016-04-21T07:09:22.319Z,11.22
2016-04-21T07:10:22.337Z,11.23
2016-04-21T07:11:22.356Z,11.35
2016-04-21T07:12:22.374Z,11.35
2016-04-21T07:13:22.393Z,11.37
2016-04-21T07:14:22.395Z,11.45
2016-04-21T07:15:22.429Z,11.54
2016-04-21T07:16:22.431Z,11.68
2016-04-21T07:17:22.465Z,11.66
2016-04-21T07:18:22.484Z,11.7
2016-04-21T07:19:22.502Z,11.66
2016-04-21T07:20:22.506Z,11.72
2016-04-21T07:21:22.539Z,11.75
2016-04-21T07:22:22.541Z,11.88
2016-04-21T07:23:22.561Z,11.95
2016-04-21T07:24:22.595Z,12
2016-04-21T07:25:22.612Z,12.09
2016-04-21T07:26:22.615Z,12.04
2016-04-21T07:27:22.650Z,12.12
2016-04-21T07:28:22.652Z,12.13
2016-04-21T07:29:22.686Z,12.25
2016-04-21T07:30:22.704Z,12.22
2016-04-21T07:31:22.722Z,12.31
2016-04-21T07:32:22.741Z,12.35
2016-04-21T07:33:22.758Z,12.35
2016-04-21T07:34:22.761Z,12.43
2016-04-21T07:35:22.795Z,12.46
2016-04-21T07:36:22.813Z,12.58
2016-04-21T07:37:22.833Z,12.64
2016-04-21T07:38:22.851Z,12.64
2016-04-21T07:39:22.868Z,12.7
2016-04-21T07:40:22.888Z,12.76
2016-04-21T07:41:22.905Z,12.76
2016-04-21T07:42:22.924Z,12.82
2016-04-21T07:43:22.943Z,12.9
2016-04-21T07:44:22.976Z,12.98
2016-04-21T07:45:22.995Z,12.94
2016-04-21T07:46:22.997Z,13
2016-04-21T07:47:23.046Z,12.98
2016-04-21T07:48:23.049Z,13
2016-04-21T07:49:23.051Z,13.12
2016-04-21T07:50:23.086Z,13.2
2016-04-21T07:51:23.104Z,13.19
2016-04-21T07:52:23.123Z,13.2
2016-04-21T07:53:23.141Z,13.3
2016-04-21T07:54:23.159Z,13.35
2016-04-21T07:55:23.178Z,13.38
2016-04-21T07:56:23.195Z,13.41
2016-04-21T07:57:23.214Z,13.49
2016-04-21T07:58:23.233Z,13.63
2016-04-21T07:59:23.250Z,13.67
2016-04-21T08:00:23.269Z,13.6
2016-04-21T08:01:23.287Z,13.7
2016-04-21T08:02:23.322Z,13.75
2016-04-21T08:03:23.324Z,13.77
2016-04-21T08:04:23.357Z,13.79
2016-04-21T08:05:23.361Z,13.78
2016-04-21T08:06:23.410Z,13.81
2016-04-21T08:07:23.413Z,13.89
2016-04-21T08:08:23.416Z,14
2016-04-21T08:09:23.449Z,14
2016-04-21T08:10:23.468Z,14.11
2016-04-21T08:11:23.485Z,14.07
2016-04-21T08:12:23.504Z,14.18
2016-04-21T08:13:23.538Z,14.17
2016-04-21T08:14:23.557Z,14.23
2016-04-21T08:15:23.560Z,14.36
2016-04-21T08:16:23.578Z,14.41
2016-04-21T08:17:23.596Z,14.47
2016-04-21T08:18:23.614Z,14.5
2016-04-21T08:19:23.649Z,14.5
2016-04-21T08:20:23.651Z,14.6
2016-04-21T08:21:23.685Z,14.68
2016-04-21T08:22:23.719Z,14.7
2016-04-21T08:23:23.736Z,14.78
2016-04-21T08:24:23.771Z,14.72
2016-04-21T08:25:23.756Z,14.73
2016-04-21T08:26:23.773Z,14.88
2016-04-21T08:27:23.792Z,14.96
2016-04-21T08:28:23.825Z,14.99
2016-04-21T08:29:23.845Z,14.99
2016-04-21T08:30:23.863Z,15.06
2016-04-21T08:31:24.181Z,15.07
2016-04-21T08:32:23.915Z,15.19
2016-04-21T08:33:23.949Z,15.19
2016-04-21T08:34:23.936Z,15.28
2016-04-21T08:35:23.970Z,15.28
2016-04-21T08:36:23.988Z,15.4
2016-04-21T08:37:24.007Z,15.43
2016-04-21T08:38:24.024Z,15.42
2016-04-21T08:39:24.074Z,15.57
2016-04-21T08:40:24.077Z,15.64
2016-04-21T08:41:24.079Z,15.59
2016-04-21T08:42:24.114Z,15.7
2016-04-21T08:43:24.132Z,15.7
2016-04-21T08:44:24.151Z,15.83
2016-04-21T08:45:24.169Z,15.83
2016-04-21T08:46:24.202Z,15.9
2016-04-21T08:47:24.204Z,15.97
2016-04-21T08:48:24.240Z,15.94
2016-04-21T08:49:24.258Z,16.01
2016-04-21T08:50:24.292Z,16.04
2016-04-21T08:51:24.278Z,16.13
2016-04-21T08:52:24.317Z,16.16
2016-04-21T08:53:24.336Z,16.26
2016-04-21T08:54:24.354Z,16.26
2016-04-21T08:55:24.388Z,16.28
2016-04-21T08:56:24.406Z,16.41
2016-04-21T08:57:24.408Z,16.49
2016-04-21T08:58:24.442Z,16.53
2016-04-21T08:59:24.461Z,16.5
2016-04-21T09:00:24.479Z,16.54
2016-04-21T09:01:24.497Z,16.56
2016-04-21T09:02:24.533Z,16.64
2016-04-21T09:03:24.566Z,16.74
2016-04-21T09:04:24.568Z,16.75
2016-04-21T09:05:24.586Z,16.79
2016-04-21T09:06:24.668Z,16.84
2016-04-21T09:07:24.624Z,16.79
2016-04-21T09:08:24.657Z,16.84
2016-04-21T09:09:24.676Z,16.89
2016-04-21T09:10:24.694Z,16.89
2016-04-21T09:11:24.712Z,16.96
2016-04-21T09:12:24.746Z,16.99
2016-04-21T09:13:24.764Z,16.9
2016-04-21T09:14:24.815Z,16.99
2016-04-21T09:15:24.802Z,17.14
2016-04-21T09:16:24.835Z,17.19
2016-04-21T09:17:24.837Z,17.26
2016-04-21T09:18:24.871Z,17.23
2016-04-21T09:19:24.889Z,17.34
2016-04-21T09:20:24.752Z,17.39
2016-04-21T09:21:24.926Z,17.45
2016-04-21T09:22:24.961Z,17.46
2016-04-21T09:23:24.978Z,17.51
2016-04-21T09:24:24.872Z,17.54
2016-04-21T09:25:25.031Z,17.65
2016-04-21T09:26:25.050Z,17.7
2016-04-21T09:27:25.068Z,17.71
2016-04-21T09:28:25.087Z,17.64
2016-04-21T09:29:25.120Z,17.72
2016-04-21T09:30:25.139Z,17.78
2016-04-21T09:31:25.156Z,17.72
2016-04-21T09:32:25.238Z,17.82
2016-04-21T09:33:25.193Z,17.9
2016-04-21T09:34:25.227Z,18.07
2016-04-21T09:35:25.246Z,18.03
2016-04-21T09:36:25.264Z,18.16
2016-04-21T09:37:25.282Z,18.1
2016-04-21T09:38:25.347Z,18.15
2016-04-21T09:39:25.209Z,18.33
2016-04-21T09:40:25.353Z,18.4
2016-04-21T09:41:25.371Z,18.44
2016-04-21T09:42:25.405Z,18.55
2016-04-21T09:43:25.423Z,18.6
2016-04-21T09:44:25.441Z,18.62
2016-04-21T09:45:25.460Z,18.66
2016-04-21T09:46:25.493Z,18.75
2016-04-21T09:47:25.512Z,18.74
2016-04-21T09:48:25.531Z,18.88
2016-04-21T09:49:25.564Z,18.89
2016-04-21T09:50:25.583Z,18.86
2016-04-21T09:51:25.617Z,18.93
2016-04-21T09:52:25.634Z,18.96
2016-04-21T09:53:25.638Z,18.93
2016-04-21T09:54:25.703Z,19.08
2016-04-21T09:55:25.690Z,19.11
2016-04-21T09:56:25.709Z,19.15
2016-04-21T09:57:25.742Z,19.18
2016-04-21T09:58:25.776Z,19.29
2016-04-21T09:59:25.778Z,19.22
2016-04-21T10:00:25.814Z,19.33
2016-04-21T10:01:25.831Z,19.33
2016-04-21T10:02:25.865Z,19.41
2016-04-21T10:03:25.884Z,19.41
2016-04-21T10:04:25.902Z,19.52
2016-04-21T10:05:25.951Z,19.52
2016-04-21T10:06:25.954Z,19.63
2016-04-21T10:07:26.003Z,19.62
2016-04-21T10:08:26.006Z,19.71
2016-04-21T10:09:26.024Z,19.69
2016-04-21T10:10:26.058Z,19.92
2016-04-21T10:11:26.125Z,19.85
2016-04-21T10:12:26.187Z,19.95
2016-04-21T10:13:26.186Z,20
2016-04-21T10:14:26.311Z,19.99
2016-04-21T10:15:26.374Z,20
2016-04-21T10:16:26.416Z,20.07
2016-04-21T10:17:26.497Z,20.14
2016-04-21T10:18:26.515Z,20.18
2016-04-21T10:19:26.550Z,20.24
2016-04-21T10:20:26.600Z,20.22
2016-04-21T10:21:26.610Z,20.28
2016-04-21T10:22:26.649Z,20.28
2016-04-21T10:23:26.675Z,20.52
2016-04-21T10:24:26.699Z,20.44
2016-04-21T10:25:26.738Z,20.48
2016-04-21T10:26:26.759Z,20.51
2016-04-21T10:27:26.779Z,20.62
2016-04-21T10:28:26.815Z,20.59
2016-04-21T10:29:26.836Z,20.7
2016-04-21T10:30:26.872Z,20.75
2016-04-21T10:31:26.892Z,20.9
2016-04-21T10:32:26.926Z,20.84
2016-04-21T10:33:26.945Z,20.93
2016-04-21T10:34:26.979Z,20.92
2016-04-21T10:35:26.842Z,21.02
2016-04-21T10:36:27.017Z,21
2016-04-21T10:37:27.051Z,21.14
2016-04-21T10:38:27.071Z,21.22
2016-04-21T10:39:27.089Z,21.25
2016-04-21T10:40:27.123Z,21.22
2016-04-21T10:41:27.157Z,21.32
2016-04-21T10:42:27.176Z,21.35
2016-04-21T10:43:27.194Z,21.33
2016-04-21T10:44:27.228Z,21.36
2016-04-21T10:45:27.246Z,21.46
2016-04-21T10:46:27.281Z,21.46
2016-04-21T10:47:27.298Z,21.43
2016-04-21T10:48:27.318Z,21.46
2016-04-21T10:49:27.335Z,21.55
2016-04-21T10:50:27.370Z,21.57
2016-04-21T10:51:27.388Z,21.62
2016-04-21T10:52:27.422Z,21.62
2016-04-21T10:53:27.456Z,21.72
2016-04-21T10:54:27.474Z,21.73
2016-04-21T10:55:27.492Z,21.67
2016-04-21T10:56:27.526Z,21.76
2016-04-21T10:57:26.810Z,21.88
2016-04-21T10:58:27.578Z,21.89
2016-04-21T10:59:27.597Z,21.96
2016-04-21T11:00:27.630Z,22
2016-04-21T11:01:27.664Z,21.99
2016-04-21T11:02:27.667Z,22.15
2016-04-21T11:03:27.702Z,22.17
2016-04-21T11:04:27.735Z,22.29
2016-04-21T11:05:27.753Z,22.3
2016-04-21T11:06:27.788Z,22.41
2016-04-21T11:07:27.806Z,22.53
2016-04-21T11:08:27.840Z,22.43
2016-04-21T11:09:27.858Z,22.51
2016-04-21T11:10:27.876Z,22.59
2016-04-21T11:11:27.926Z,22.62
2016-04-21T11:12:27.944Z,22.65
2016-04-21T11:13:27.963Z,22.7
2016-04-21T11:14:27.996Z,22.81
2016-04-21T11:15:28.015Z,22.78
2016-04-21T11:16:28.049Z,22.8
2016-04-21T11:17:28.068Z,22.73
2016-04-21T11:18:28.084Z,22.81
2016-04-21T11:19:28.119Z,22.83
2016-04-21T11:20:28.153Z,22.93
2016-04-21T11:21:28.171Z,22.87
2016-04-21T11:22:28.205Z,22.91
2016-04-21T11:23:28.224Z,22.94
2016-04-21T11:24:28.242Z,23.05
2016-04-21T11:25:28.276Z,23.1
2016-04-21T11:26:28.309Z,23.15
2016-04-21T11:27:28.328Z,23.1
2016-04-21T11:28:28.347Z,23.1
2016-04-21T11:29:28.381Z,23.23
2016-04-21T11:30:28.399Z,23.34
2016-04-21T11:31:28.433Z,23.39
2016-04-21T11:32:28.466Z,23.43
2016-04-21T11:33:28.485Z,23.51
2016-04-21T11:34:28.535Z,23.62
2016-04-21T11:35:28.538Z,23.65
2016-04-21T11:36:28.571Z,23.69
2016-04-21T11:37:28.589Z,23.69
2016-04-21T11:38:28.623Z,23.8
2016-04-21T11:39:28.657Z,23.76
2016-04-21T11:40:28.676Z,23.86
2016-04-21T11:41:28.710Z,23.88
2016-04-21T11:42:28.744Z,23.92
2016-04-21T11:43:28.762Z,23.93
2016-04-21T11:44:28.796Z,24.01
2016-04-21T11:45:28.815Z,24.05
2016-04-21T11:46:28.849Z,24.16
2016-04-21T11:47:28.866Z,24.2
2016-04-21T11:48:28.884Z,24.21
2016-04-21T11:49:28.934Z,24.39
2016-04-21T11:50:28.953Z,24.42
2016-04-21T11:51:28.987Z,24.39
2016-04-21T11:52:29.005Z,24.42
2016-04-21T11:53:29.101Z,24.5
2016-04-21T11:54:29.056Z,24.54
2016-04-21T11:55:29.106Z,24.57
2016-04-21T11:56:29.125Z,24.61
2016-04-21T11:57:29.143Z,24.58
2016-04-21T11:58:29.178Z,24.61
2016-04-21T11:59:29.211Z,24.57
2016-04-21T12:00:29.245Z,24.74
2016-04-21T12:01:29.263Z,24.76
2016-04-21T12:02:29.281Z,24.77
2016-04-21T12:03:29.316Z,24.86
2016-04-21T12:04:29.350Z,24.86
2016-04-21T12:05:29.384Z,24.85
2016-04-21T12:06:29.402Z,24.95
2016-04-21T12:07:29.436Z,25.01
2016-04-21T12:08:29.297Z,24.96
2016-04-21T12:09:29.488Z,25.06
2016-04-21T12:10:29.507Z,25.14
2016-04-21T12:11:29.540Z,25.13
2016-04-21T12:12:29.574Z,25.21
2016-04-21T12:13:29.608Z,25.17
2016-04-21T12:14:29.626Z,25.25
2016-04-21T12:15:29.660Z,25.33
2016-04-21T12:16:29.523Z,25.32
2016-04-21T12:17:29.713Z,25.46
2016-04-21T12:18:29.746Z,25.46
2016-04-21T12:19:29.765Z,25.48
2016-04-21T12:20:29.642Z,25.51
2016-04-21T12:21:29.817Z,25.55
2016-04-21T12:22:29.851Z,25.59
2016-04-21T12:23:29.884Z,25.63
2016-04-21T12:24:29.904Z,25.65
2016-04-21T12:25:29.937Z,25.75
2016-04-21T12:26:29.956Z,25.72
2016-04-21T12:27:30.005Z,25.8
2016-04-21T12:28:30.024Z,25.85
2016-04-21T12:29:30.058Z,25.87
2016-04-21T12:30:30.075Z,25.88
2016-04-21T12:31:30.109Z,25.99
2016-04-21T12:32:30.144Z,25.96
2016-04-21T12:33:30.162Z,26.07
2016-04-21T12:34:30.196Z,26.15
2016-04-21T12:35:30.230Z,26.19
2016-04-21T12:36:30.263Z,26.16
2016-04-21T12:37:30.282Z,26.26
2016-04-21T12:38:30.316Z,26.13
2016-04-21T12:39:30.350Z,26.19
2016-04-21T12:40:30.368Z,26.23
2016-04-21T12:41:30.418Z,26.26
2016-04-21T12:42:30.436Z,26.33
2016-04-21T12:43:30.455Z,26.33
2016-04-21T12:44:30.488Z,26.4
2016-04-21T12:45:30.522Z,26.38
2016-04-21T12:46:30.571Z,26.38
2016-04-21T12:47:30.574Z,26.44
2016-04-21T12:48:30.609Z,26.58
2016-04-21T12:49:30.642Z,26.55
2016-04-21T12:50:30.677Z,26.51
2016-04-21T12:51:30.695Z,26.55
2016-04-21T12:52:30.729Z,26.59
2016-04-21T12:53:30.763Z,26.63
2016-04-21T12:54:30.796Z,26.65
2016-04-21T12:55:30.815Z,26.63
2016-04-21T12:56:30.848Z,26.73
2016-04-21T12:57:30.883Z,26.8
2016-04-21T12:58:30.917Z,26.8
2016-04-21T12:59:30.935Z,26.75
2016-04-21T13:00:30.985Z,26.81
2016-04-21T13:01:31.019Z,26.85
2016-04-21T13:02:31.037Z,26.96
2016-04-21T13:03:31.056Z,26.95
2016-04-21T13:04:31.073Z,26.9
2016-04-21T13:05:31.107Z,26.92